Terminal Aerodrome Forecast
Issued by NWS

Home | Current Version | Previous Version | Text Only | Print | Product List | Glossary On
Versions: 1 2 3 4 5 6 7 8 9 10 11 12 13 14 15 16 17 18 19 20 21 22 23 24 25
000
FTUS41 KBGM 271700 AAB
TAFITH
TAF AMD
KITH 271702Z 2717/2812 33007KT 2SM -SN BR BKN008 OVC015
     FM271800 33008KT P6SM OVC012
     FM271900 33006KT P6SM BKN050
     FM280700 29005KT P6SM OVC035=

USA.gov is the U.S. government's official web portal to all federal, state and local government web resources and services.